Portada
METAR-TAF:

METAR-TAF

Aeropuertos :

Batesville, Arkansas, Estados Unidos

latitud: 35-44N, longitud: 091-39W, altitud: 141 m

Observación

El informe se hizo hace 15 minutos, a las 21:56 UTC
Viento 7 kt del sur-sureste
Temperatura 22°C
Humedad 38%
Presión 1015 hPa
Visibilidad: 16.1 km
Cielo despejado

METAR: KBVX 022156Z AUTO 15007KT 10SM CLR 22/07 A2998 RMK AO2 SLP152 T02170067

Hora: 17:11 (22:11 UTC)


TAF: falta

Observaciones y pronósticos meteorológicos de más de 4000 aeropuertos (mensajes METAR y TAF).

Los puntos amarillos y rojos representan las estaciones disponibles.

Ponga el ratón en el punto deseado para ver el nombre de la estación.

Haga clic para ver las observaciones y los pronósticos meteorológicos.

Para cambiar el mapa : haga clic en los botones verdes con una cruz de color negro para hacer un zoom, en el botón verde con un guión para alejar o en las flechas verdes para mapas adyacentes.


METAR-TAF: